KMLT

Millinocket Municipal Airport

Millinocket, Maine, USA
METAR KMLT 201653Z AUTO VRB03KT 10SM SCT049 BKN060 14/05 A2944 RMK AO2 SLP976 T01390050
Observed Flight Rules
Oct-20 @ 16:53 UTC (18 minutes ago) Visual Flight Rules
Wind Visibility Clouds
Variable at 3 knots 10 miles
  • Scattered at 4,900' AGL
  • Broken at 6,000' AGL
Temperatures Readings
Current 14°C / 57°F
Dewpoint 5°C / 41°F
Humidity 55%
Altimeter 29.44" Hg
Pressure 997.6 hPa
Elevation 123
METAR KMLT 201653Z AUTO VRB03KT 10SM SCT049 BKN060 14/05 A2944 RMK AO2 SLP976 T01390050
Observed Flight Rules
Oct-20 @ 16:53 UTC
(18 minutes ago)
VFR
Wind Visibility
Variable at 3 knots 10 miles
Clouds
  • Scattered at 4,900' AGL
  • Broken at 6,000' AGL
Temperature Dewpoint
14°C / 57°F 5°C / 41°F
Humidity Altimeter Pressure
55% 29.44" Hg 997.6 hPa